sensor_id;sensor_type;location;lat;lon;timestamp;temperature;humidity
51655;DHT22;37732;53.106;7.030;2022-08-30T00:01:55;15.90;99.90
51655;DHT22;37732;53.106;7.030;2022-08-30T00:04:21;15.80;99.90
51655;DHT22;37732;53.106;7.030;2022-08-30T00:06:47;15.90;99.90
51655;DHT22;37732;53.106;7.030;2022-08-30T00:09:13;15.80;99.90
51655;DHT22;37732;53.106;7.030;2022-08-30T00:11:39;15.70;99.90
51655;DHT22;37732;53.106;7.030;2022-08-30T00:14:05;15.70;99.90
51655;DHT22;37732;53.106;7.030;2022-08-30T00:16:31;15.70;99.90
51655;DHT22;37732;53.106;7.030;2022-08-30T00:18:57;15.70;99.90
51655;DHT22;37732;53.106;7.030;2022-08-30T00:21:23;15.60;99.90
51655;DHT22;37732;53.106;7.030;2022-08-30T00:23:50;15.60;99.90
51655;DHT22;37732;53.106;7.030;2022-08-30T00:26:16;15.60;99.90
51655;DHT22;37732;53.106;7.030;2022-08-30T00:28:41;15.60;99.90
51655;DHT22;37732;53.106;7.030;2022-08-30T00:31:07;15.50;99.90
51655;DHT22;37732;53.106;7.030;2022-08-30T00:33:33;15.50;99.90
51655;DHT22;37732;53.106;7.030;2022-08-30T00:35:58;15.40;99.90
51655;DHT22;37732;53.106;7.030;2022-08-30T00:38:24;15.40;99.90
51655;DHT22;37732;53.106;7.030;2022-08-30T00:40:50;15.30;99.90
51655;DHT22;37732;53.106;7.030;2022-08-30T00:43:24;15.30;99.90
51655;DHT22;37732;53.106;7.030;2022-08-30T00:45:50;15.30;99.90
51655;DHT22;37732;53.106;7.030;2022-08-30T00:48:16;15.20;99.90
51655;DHT22;37732;53.106;7.030;2022-08-30T00:50:45;15.10;99.90
51655;DHT22;37732;53.106;7.030;2022-08-30T00:53:21;15.10;99.90
51655;DHT22;37732;53.106;7.030;2022-08-30T00:55:48;15.00;99.90
51655;DHT22;37732;53.106;7.030;2022-08-30T00:58:18;15.00;99.90
51655;DHT22;37732;53.106;7.030;2022-08-30T01:00:51;14.90;99.90
51655;DHT22;37732;53.106;7.030;2022-08-30T01:03:18;14.90;99.90
51655;DHT22;37732;53.106;7.030;2022-08-30T01:05:45;14.80;99.90
51655;DHT22;37732;53.106;7.030;2022-08-30T01:08:11;14.80;99.90
51655;DHT22;37732;53.106;7.030;2022-08-30T01:10:40;14.80;99.90
51655;DHT22;37732;53.106;7.030;2022-08-30T01:13:07;14.70;99.90
51655;DHT22;37732;53.106;7.030;2022-08-30T01:15:33;14.70;99.90
51655;DHT22;37732;53.106;7.030;2022-08-30T01:18:01;14.70;99.90
51655;DHT22;37732;53.106;7.030;2022-08-30T01:20:32;14.70;99.90
51655;DHT22;37732;53.106;7.030;2022-08-30T01:23:19;14.60;99.90
51655;DHT22;37732;53.106;7.030;2022-08-30T01:25:48;14.70;99.90
51655;DHT22;37732;53.106;7.030;2022-08-30T01:28:20;14.60;99.90
51655;DHT22;37732;53.106;7.030;2022-08-30T01:30:47;14.60;99.90
51655;DHT22;37732;53.106;7.030;2022-08-30T01:33:13;14.60;99.90
51655;DHT22;37732;53.106;7.030;2022-08-30T01:35:49;14.60;99.90
51655;DHT22;37732;53.106;7.030;2022-08-30T01:38:26;14.60;99.90
51655;DHT22;37732;53.106;7.030;2022-08-30T01:41:06;14.60;99.90
51655;DHT22;37732;53.106;7.030;2022-08-30T01:43:33;14.60;99.90
51655;DHT22;37732;53.106;7.030;2022-08-30T01:45:59;14.50;99.90
51655;DHT22;37732;53.106;7.030;2022-08-30T01:48:26;14.50;99.90
51655;DHT22;37732;53.106;7.030;2022-08-30T01:50:53;14.50;99.90
51655;DHT22;37732;53.106;7.030;2022-08-30T01:53:19;14.50;99.90
51655;DHT22;37732;53.106;7.030;2022-08-30T01:55:44;14.50;99.90
51655;DHT22;37732;53.106;7.030;2022-08-30T01:58:10;14.50;99.90
51655;DHT22;37732;53.106;7.030;2022-08-30T02:00:36;14.50;99.90
51655;DHT22;37732;53.106;7.030;2022-08-30T02:03:03;14.40;99.90
51655;DHT22;37732;53.106;7.030;2022-08-30T02:05:29;14.40;99.90
51655;DHT22;37732;53.106;7.030;2022-08-30T02:07:55;14.50;99.90
51655;DHT22;37732;53.106;7.030;2022-08-30T02:10:21;14.40;99.90
51655;DHT22;37732;53.106;7.030;2022-08-30T02:12:47;14.40;99.90
51655;DHT22;37732;53.106;7.030;2022-08-30T02:15:13;14.30;99.90
51655;DHT22;37732;53.106;7.030;2022-08-30T02:17:39;14.30;99.90
51655;DHT22;37732;53.106;7.030;2022-08-30T02:20:06;14.40;99.90
51655;DHT22;37732;53.106;7.030;2022-08-30T02:22:32;14.30;99.90
51655;DHT22;37732;53.106;7.030;2022-08-30T02:24:58;14.30;99.90
51655;DHT22;37732;53.106;7.030;2022-08-30T02:27:24;14.30;99.90
51655;DHT22;37732;53.106;7.030;2022-08-30T02:29:51;14.20;99.90
51655;DHT22;37732;53.106;7.030;2022-08-30T02:32:17;14.50;99.90
51655;DHT22;37732;53.106;7.030;2022-08-30T02:34:42;14.70;99.90
51655;DHT22;37732;53.106;7.030;2022-08-30T02:37:09;14.10;99.90
51655;DHT22;37732;53.106;7.030;2022-08-30T02:39:35;14.10;99.90
51655;DHT22;37732;53.106;7.030;2022-08-30T02:42:01;14.10;99.90
51655;DHT22;37732;53.106;7.030;2022-08-30T02:44:27;14.10;99.90
51655;DHT22;37732;53.106;7.030;2022-08-30T02:46:52;14.00;99.90
51655;DHT22;37732;53.106;7.030;2022-08-30T02:49:18;14.00;99.90
51655;DHT22;37732;53.106;7.030;2022-08-30T02:51:44;14.00;99.90
51655;DHT22;37732;53.106;7.030;2022-08-30T02:54:09;14.00;99.90
51655;DHT22;37732;53.106;7.030;2022-08-30T02:56:40;14.00;99.90
51655;DHT22;37732;53.106;7.030;2022-08-30T02:59:06;14.00;99.90
51655;DHT22;37732;53.106;7.030;2022-08-30T03:01:32;13.90;99.90
51655;DHT22;37732;53.106;7.030;2022-08-30T03:04:00;13.90;99.90
51655;DHT22;37732;53.106;7.030;2022-08-30T03:06:26;13.90;99.90
51655;DHT22;37732;53.106;7.030;2022-08-30T03:08:52;13.90;99.90
51655;DHT22;37732;53.106;7.030;2022-08-30T03:11:18;13.90;99.90
51655;DHT22;37732;53.106;7.030;2022-08-30T03:13:43;13.80;99.90
51655;DHT22;37732;53.106;7.030;2022-08-30T03:16:09;13.80;99.90
51655;DHT22;37732;53.106;7.030;2022-08-30T03:18:34;13.80;99.90
51655;DHT22;37732;53.106;7.030;2022-08-30T03:21:00;13.80;99.90
51655;DHT22;37732;53.106;7.030;2022-08-30T03:23:26;13.80;99.90
51655;DHT22;37732;53.106;7.030;2022-08-30T03:25:52;13.80;99.90
51655;DHT22;37732;53.106;7.030;2022-08-30T03:28:18;13.80;99.90
51655;DHT22;37732;53.106;7.030;2022-08-30T03:30:44;13.80;99.90
51655;DHT22;37732;53.106;7.030;2022-08-30T03:33:11;13.80;99.90
51655;DHT22;37732;53.106;7.030;2022-08-30T03:35:37;13.80;99.90
51655;DHT22;37732;53.106;7.030;2022-08-30T03:38:03;13.70;99.90
51655;DHT22;37732;53.106;7.030;2022-08-30T03:40:30;13.80;99.90
51655;DHT22;37732;53.106;7.030;2022-08-30T03:42:56;13.80;99.90
51655;DHT22;37732;53.106;7.030;2022-08-30T03:45:22;13.80;99.90
51655;DHT22;37732;53.106;7.030;2022-08-30T03:47:48;13.80;99.90
51655;DHT22;37732;53.106;7.030;2022-08-30T03:50:14;13.80;99.90
51655;DHT22;37732;53.106;7.030;2022-08-30T03:52:40;13.70;99.90
51655;DHT22;37732;53.106;7.030;2022-08-30T03:55:07;13.70;99.90
51655;DHT22;37732;53.106;7.030;2022-08-30T03:57:33;13.70;99.90
51655;DHT22;37732;53.106;7.030;2022-08-30T03:59:58;13.70;99.90
51655;DHT22;37732;53.106;7.030;2022-08-30T04:02:24;13.60;99.90
51655;DHT22;37732;53.106;7.030;2022-08-30T04:04:50;13.60;99.90
51655;DHT22;37732;53.106;7.030;2022-08-30T04:07:17;13.60;99.90
51655;DHT22;37732;53.106;7.030;2022-08-30T04:09:43;13.50;99.90
51655;DHT22;37732;53.106;7.030;2022-08-30T04:12:09;13.50;99.90
51655;DHT22;37732;53.106;7.030;2022-08-30T04:14:35;13.50;99.90
51655;DHT22;37732;53.106;7.030;2022-08-30T04:17:01;13.50;99.90
51655;DHT22;37732;53.106;7.030;2022-08-30T04:19:27;13.50;99.90
51655;DHT22;37732;53.106;7.030;2022-08-30T04:21:53;13.40;99.90
51655;DHT22;37732;53.106;7.030;2022-08-30T04:24:19;13.40;99.90
51655;DHT22;37732;53.106;7.030;2022-08-30T04:26:45;13.40;99.90
51655;DHT22;37732;53.106;7.030;2022-08-30T04:29:11;13.30;99.90
51655;DHT22;37732;53.106;7.030;2022-08-30T04:31:40;13.30;99.90
51655;DHT22;37732;53.106;7.030;2022-08-30T04:34:11;13.30;99.90
51655;DHT22;37732;53.106;7.030;2022-08-30T04:36:37;13.30;99.90
51655;DHT22;37732;53.106;7.030;2022-08-30T04:39:04;13.30;99.90
51655;DHT22;37732;53.106;7.030;2022-08-30T04:41:29;13.30;99.90
51655;DHT22;37732;53.106;7.030;2022-08-30T04:43:55;13.30;99.90
51655;DHT22;37732;53.106;7.030;2022-08-30T04:46:21;13.30;99.90
51655;DHT22;37732;53.106;7.030;2022-08-30T04:48:46;13.30;99.90
51655;DHT22;37732;53.106;7.030;2022-08-30T04:51:16;13.60;99.90
51655;DHT22;37732;53.106;7.030;2022-08-30T04:53:42;13.70;99.90
51655;DHT22;37732;53.106;7.030;2022-08-30T04:56:10;13.20;99.90
51655;DHT22;37732;53.106;7.030;2022-08-30T04:58:36;13.20;99.90
51655;DHT22;37732;53.106;7.030;2022-08-30T05:01:03;13.20;99.90
51655;DHT22;37732;53.106;7.030;2022-08-30T05:03:29;13.10;99.90
51655;DHT22;37732;53.106;7.030;2022-08-30T05:05:54;13.60;99.90
51655;DHT22;37732;53.106;7.030;2022-08-30T05:08:21;13.10;99.90
51655;DHT22;37732;53.106;7.030;2022-08-30T05:10:48;13.10;99.90
51655;DHT22;37732;53.106;7.030;2022-08-30T05:13:17;13.10;99.90
51655;DHT22;37732;53.106;7.030;2022-08-30T05:15:44;13.10;99.90
51655;DHT22;37732;53.106;7.030;2022-08-30T05:18:11;13.10;99.90
51655;DHT22;37732;53.106;7.030;2022-08-30T05:20:37;13.00;99.90
51655;DHT22;37732;53.106;7.030;2022-08-30T05:23:04;13.00;99.90
51655;DHT22;37732;53.106;7.030;2022-08-30T05:25:32;12.90;99.90
51655;DHT22;37732;53.106;7.030;2022-08-30T05:27:58;12.80;99.90
51655;DHT22;37732;53.106;7.030;2022-08-30T05:30:25;13.00;99.90
51655;DHT22;37732;53.106;7.030;2022-08-30T05:32:52;12.90;99.90
51655;DHT22;37732;53.106;7.030;2022-08-30T05:35:19;13.00;99.90
51655;DHT22;37732;53.106;7.030;2022-08-30T05:37:46;13.10;99.90
51655;DHT22;37732;53.106;7.030;2022-08-30T05:40:12;13.00;99.90
51655;DHT22;37732;53.106;7.030;2022-08-30T05:42:43;13.00;99.90
51655;DHT22;37732;53.106;7.030;2022-08-30T05:45:10;13.00;99.90
51655;DHT22;37732;53.106;7.030;2022-08-30T05:47:37;13.00;99.90
51655;DHT22;37732;53.106;7.030;2022-08-30T05:50:04;13.10;99.90
51655;DHT22;37732;53.106;7.030;2022-08-30T05:52:34;13.10;99.90
51655;DHT22;37732;53.106;7.030;2022-08-30T05:55:00;13.10;99.90
51655;DHT22;37732;53.106;7.030;2022-08-30T05:57:31;13.20;99.90
51655;DHT22;37732;53.106;7.030;2022-08-30T05:59:58;13.20;99.90
51655;DHT22;37732;53.106;7.030;2022-08-30T06:02:24;13.30;99.90
51655;DHT22;37732;53.106;7.030;2022-08-30T06:04:50;13.50;99.90
51655;DHT22;37732;53.106;7.030;2022-08-30T06:07:15;13.60;99.90
51655;DHT22;37732;53.106;7.030;2022-08-30T06:09:41;13.70;99.90
51655;DHT22;37732;53.106;7.030;2022-08-30T06:12:07;14.00;99.90
51655;DHT22;37732;53.106;7.030;2022-08-30T06:14:32;14.10;99.90
51655;DHT22;37732;53.106;7.030;2022-08-30T06:16:58;14.30;99.90
51655;DHT22;37732;53.106;7.030;2022-08-30T06:19:24;14.50;99.90
51655;DHT22;37732;53.106;7.030;2022-08-30T06:21:50;14.70;99.90
51655;DHT22;37732;53.106;7.030;2022-08-30T06:24:16;14.90;99.90
51655;DHT22;37732;53.106;7.030;2022-08-30T06:26:45;15.10;99.90
51655;DHT22;37732;53.106;7.030;2022-08-30T06:29:13;15.30;99.90
51655;DHT22;37732;53.106;7.030;2022-08-30T06:31:40;15.50;99.90
51655;DHT22;37732;53.106;7.030;2022-08-30T06:34:05;15.70;99.90
51655;DHT22;37732;53.106;7.030;2022-08-30T06:36:31;15.90;99.90
51655;DHT22;37732;53.106;7.030;2022-08-30T06:38:58;16.10;99.90
51655;DHT22;37732;53.106;7.030;2022-08-30T06:41:28;16.30;99.90
51655;DHT22;37732;53.106;7.030;2022-08-30T06:43:55;16.40;99.90
51655;DHT22;37732;53.106;7.030;2022-08-30T06:46:31;16.60;99.90
51655;DHT22;37732;53.106;7.030;2022-08-30T06:48:58;16.80;99.90
51655;DHT22;37732;53.106;7.030;2022-08-30T06:51:33;16.90;99.90
51655;DHT22;37732;53.106;7.030;2022-08-30T06:54:01;17.10;99.90
51655;DHT22;37732;53.106;7.030;2022-08-30T06:56:26;17.20;99.90
51655;DHT22;37732;53.106;7.030;2022-08-30T06:58:52;17.40;99.90
51655;DHT22;37732;53.106;7.030;2022-08-30T07:01:21;17.60;99.90
51655;DHT22;37732;53.106;7.030;2022-08-30T07:03:48;17.70;99.90
51655;DHT22;37732;53.106;7.030;2022-08-30T07:06:14;17.90;99.90
51655;DHT22;37732;53.106;7.030;2022-08-30T07:08:40;18.10;99.90
51655;DHT22;37732;53.106;7.030;2022-08-30T07:11:07;18.20;99.90
51655;DHT22;37732;53.106;7.030;2022-08-30T07:13:35;18.30;99.90
51655;DHT22;37732;53.106;7.030;2022-08-30T07:16:07;18.40;99.90
51655;DHT22;37732;53.106;7.030;2022-08-30T07:18:32;18.60;99.90
51655;DHT22;37732;53.106;7.030;2022-08-30T07:21:40;18.70;99.90
51655;DHT22;37732;53.106;7.030;2022-08-30T07:24:10;18.90;99.90
51655;DHT22;37732;53.106;7.030;2022-08-30T07:26:39;18.90;99.90
51655;DHT22;37732;53.106;7.030;2022-08-30T07:29:06;19.00;99.90
51655;DHT22;37732;53.106;7.030;2022-08-30T07:31:33;19.20;99.90
51655;DHT22;37732;53.106;7.030;2022-08-30T07:34:04;19.20;99.90
51655;DHT22;37732;53.106;7.030;2022-08-30T07:36:31;19.40;99.90
51655;DHT22;37732;53.106;7.030;2022-08-30T07:38:56;19.50;99.90
51655;DHT22;37732;53.106;7.030;2022-08-30T07:41:25;19.60;99.90
51655;DHT22;37732;53.106;7.030;2022-08-30T07:43:52;19.70;99.90
51655;DHT22;37732;53.106;7.030;2022-08-30T07:46:18;19.80;99.90
51655;DHT22;37732;53.106;7.030;2022-08-30T07:48:45;20.00;99.90
51655;DHT22;37732;53.106;7.030;2022-08-30T07:51:23;20.10;99.90
51655;DHT22;37732;53.106;7.030;2022-08-30T07:53:49;20.20;99.90
51655;DHT22;37732;53.106;7.030;2022-08-30T07:56:17;20.30;99.90
51655;DHT22;37732;53.106;7.030;2022-08-30T07:58:43;20.40;99.90
51655;DHT22;37732;53.106;7.030;2022-08-30T08:01:10;20.50;99.90
51655;DHT22;37732;53.106;7.030;2022-08-30T08:03:37;20.70;99.90
51655;DHT22;37732;53.106;7.030;2022-08-30T08:06:09;20.80;99.90
51655;DHT22;37732;53.106;7.030;2022-08-30T08:08:36;20.90;99.90
51655;DHT22;37732;53.106;7.030;2022-08-30T08:11:08;21.00;99.90
51655;DHT22;37732;53.106;7.030;2022-08-30T08:13:34;21.10;99.90
51655;DHT22;37732;53.106;7.030;2022-08-30T08:16:01;21.10;99.90
51655;DHT22;37732;53.106;7.030;2022-08-30T08:18:27;21.10;99.90
51655;DHT22;37732;53.106;7.030;2022-08-30T08:20:53;21.20;99.90
51655;DHT22;37732;53.106;7.030;2022-08-30T08:23:18;21.10;99.90
51655;DHT22;37732;53.106;7.030;2022-08-30T08:25:46;21.20;99.90
51655;DHT22;37732;53.106;7.030;2022-08-30T08:28:11;21.30;99.90
51655;DHT22;37732;53.106;7.030;2022-08-30T08:30:37;21.40;99.90
51655;DHT22;37732;53.106;7.030;2022-08-30T08:33:04;20.50;99.90
51655;DHT22;37732;53.106;7.030;2022-08-30T08:35:30;21.60;99.90
51655;DHT22;37732;53.106;7.030;2022-08-30T08:37:57;21.70;99.90
51655;DHT22;37732;53.106;7.030;2022-08-30T08:40:23;21.90;99.90
51655;DHT22;37732;53.106;7.030;2022-08-30T08:45:53;22.10;99.10
51655;DHT22;37732;53.106;7.030;2022-08-30T08:48:42;23.10;99.90
51655;DHT22;37732;53.106;7.030;2022-08-30T08:51:12;22.40;98.50
51655;DHT22;37732;53.106;7.030;2022-08-30T08:54:11;22.40;97.90
51655;DHT22;37732;53.106;7.030;2022-08-30T08:56:39;22.10;97.90
51655;DHT22;37732;53.106;7.030;2022-08-30T08:59:07;22.00;98.00
51655;DHT22;37732;53.106;7.030;2022-08-30T09:01:34;21.80;97.80
51655;DHT22;37732;53.106;7.030;2022-08-30T09:04:09;21.50;97.60
51655;DHT22;37732;53.106;7.030;2022-08-30T09:09:02;21.50;97.70
51655;DHT22;37732;53.106;7.030;2022-08-30T09:11:30;21.70;97.80
51655;DHT22;37732;53.106;7.030;2022-08-30T09:13:57;21.80;97.50
51655;DHT22;37732;53.106;7.030;2022-08-30T09:16:55;21.90;97.60
51655;DHT22;37732;53.106;7.030;2022-08-30T09:19:34;22.20;97.20
51655;DHT22;37732;53.106;7.030;2022-08-30T09:25:35;22.20;96.40
51655;DHT22;37732;53.106;7.030;2022-08-30T09:30:24;22.40;95.80
51655;DHT22;37732;53.106;7.030;2022-08-30T09:33:18;22.20;95.80
51655;DHT22;37732;53.106;7.030;2022-08-30T09:35:47;22.30;96.20
51655;DHT22;37732;53.106;7.030;2022-08-30T09:38:32;22.90;95.00
51655;DHT22;37732;53.106;7.030;2022-08-30T09:41:01;23.00;95.00
51655;DHT22;37732;53.106;7.030;2022-08-30T09:44:21;23.30;94.50
51655;DHT22;37732;53.106;7.030;2022-08-30T09:46:58;23.40;93.50
51655;DHT22;37732;53.106;7.030;2022-08-30T09:57:58;23.20;91.80
51655;DHT22;37732;53.106;7.030;2022-08-30T10:00:30;23.10;91.90
51655;DHT22;37732;53.106;7.030;2022-08-30T10:03:20;23.10;92.20
51655;DHT22;37732;53.106;7.030;2022-08-30T10:16:14;23.60;90.30
51655;DHT22;37732;53.106;7.030;2022-08-30T10:21:33;23.20;92.00
51655;DHT22;37732;53.106;7.030;2022-08-30T10:24:05;23.40;91.80
51655;DHT22;37732;53.106;7.030;2022-08-30T10:26:53;23.60;92.10
51655;DHT22;37732;53.106;7.030;2022-08-30T10:32:23;23.90;89.90
51655;DHT22;37732;53.106;7.030;2022-08-30T10:34:55;23.90;90.00
51655;DHT22;37732;53.106;7.030;2022-08-30T10:37:27;24.00;90.30
51655;DHT22;37732;53.106;7.030;2022-08-30T10:39:58;24.30;88.80
51655;DHT22;37732;53.106;7.030;2022-08-30T10:42:47;24.50;88.90
51655;DHT22;37732;53.106;7.030;2022-08-30T10:45:15;24.70;88.70
51655;DHT22;37732;53.106;7.030;2022-08-30T10:47:57;24.90;87.00
51655;DHT22;37732;53.106;7.030;2022-08-30T10:50:51;25.00;86.20
51655;DHT22;37732;53.106;7.030;2022-08-30T10:53:45;25.00;84.30
51655;DHT22;37732;53.106;7.030;2022-08-30T10:56:21;24.80;82.70
51655;DHT22;37732;53.106;7.030;2022-08-30T10:58:48;24.80;85.60
51655;DHT22;37732;53.106;7.030;2022-08-30T11:01:39;24.80;85.70
51655;DHT22;37732;53.106;7.030;2022-08-30T11:04:31;25.00;85.10
51655;DHT22;37732;53.106;7.030;2022-08-30T11:15:16;25.20;81.20
51655;DHT22;37732;53.106;7.030;2022-08-30T11:20:42;24.90;81.00
51655;DHT22;37732;53.106;7.030;2022-08-30T11:33:58;25.10;81.90
51655;DHT22;37732;53.106;7.030;2022-08-30T11:41:45;25.50;78.60
51655;DHT22;37732;53.106;7.030;2022-08-30T11:46:46;25.80;76.20
51655;DHT22;37732;53.106;7.030;2022-08-30T11:52:03;26.10;75.20
51655;DHT22;37732;53.106;7.030;2022-08-30T12:00:29;25.40;76.40
51655;DHT22;37732;53.106;7.030;2022-08-30T12:02:59;25.30;76.40
51655;DHT22;37732;53.106;7.030;2022-08-30T12:10:53;24.80;76.10
51655;DHT22;37732;53.106;7.030;2022-08-30T12:19:21;24.60;79.20
51655;DHT22;37732;53.106;7.030;2022-08-30T12:21:59;24.20;80.10
51655;DHT22;37732;53.106;7.030;2022-08-30T12:24:28;24.10;80.70
51655;DHT22;37732;53.106;7.030;2022-08-30T12:26:57;24.20;81.50
51655;DHT22;37732;53.106;7.030;2022-08-30T12:29:24;24.50;80.70
51655;DHT22;37732;53.106;7.030;2022-08-30T12:31:54;24.60;79.40
51655;DHT22;37732;53.106;7.030;2022-08-30T12:34:30;24.80;78.90
51655;DHT22;37732;53.106;7.030;2022-08-30T12:39:43;25.10;76.70
51655;DHT22;37732;53.106;7.030;2022-08-30T12:42:30;25.40;77.20
51655;DHT22;37732;53.106;7.030;2022-08-30T12:44:59;25.20;76.30
51655;DHT22;37732;53.106;7.030;2022-08-30T12:47:31;25.10;76.90
51655;DHT22;37732;53.106;7.030;2022-08-30T12:50:04;24.90;77.20
51655;DHT22;37732;53.106;7.030;2022-08-30T12:52:37;24.70;77.30
51655;DHT22;37732;53.106;7.030;2022-08-30T12:57:59;25.10;76.90
51655;DHT22;37732;53.106;7.030;2022-08-30T13:00:31;25.30;77.00
51655;DHT22;37732;53.106;7.030;2022-08-30T13:03:00;25.60;76.10
51655;DHT22;37732;53.106;7.030;2022-08-30T13:05:31;25.50;75.50
51655;DHT22;37732;53.106;7.030;2022-08-30T13:13:37;25.60;76.20
51655;DHT22;37732;53.106;7.030;2022-08-30T13:16:12;25.90;76.30
51655;DHT22;37732;53.106;7.030;2022-08-30T13:18:46;26.00;76.80
51655;DHT22;37732;53.106;7.030;2022-08-30T13:21:28;26.10;75.80
51655;DHT22;37732;53.106;7.030;2022-08-30T13:24:00;26.20;74.90
51655;DHT22;37732;53.106;7.030;2022-08-30T13:26:26;26.00;74.80
51655;DHT22;37732;53.106;7.030;2022-08-30T13:28:58;25.90;75.40
51655;DHT22;37732;53.106;7.030;2022-08-30T13:31:25;26.00;75.50
51655;DHT22;37732;53.106;7.030;2022-08-30T13:33:52;26.20;73.90
51655;DHT22;37732;53.106;7.030;2022-08-30T13:36:32;26.40;74.10
51655;DHT22;37732;53.106;7.030;2022-08-30T13:38:59;26.60;72.70
51655;DHT22;37732;53.106;7.030;2022-08-30T13:41:26;26.40;73.70
51655;DHT22;37732;53.106;7.030;2022-08-30T13:43:51;26.10;72.90
51655;DHT22;37732;53.106;7.030;2022-08-30T13:46:19;25.90;73.40
51655;DHT22;37732;53.106;7.030;2022-08-30T13:48:45;25.60;74.80
51655;DHT22;37732;53.106;7.030;2022-08-30T13:51:11;25.70;74.80
51655;DHT22;37732;53.106;7.030;2022-08-30T13:53:37;25.70;75.20
51655;DHT22;37732;53.106;7.030;2022-08-30T13:56:03;25.80;75.10
51655;DHT22;37732;53.106;7.030;2022-08-30T13:58:29;26.10;76.10
51655;DHT22;37732;53.106;7.030;2022-08-30T14:00:57;26.40;75.10
51655;DHT22;37732;53.106;7.030;2022-08-30T14:03:23;26.40;73.80
51655;DHT22;37732;53.106;7.030;2022-08-30T14:05:49;26.30;73.50
51655;DHT22;37732;53.106;7.030;2022-08-30T14:08:18;26.00;73.00
51655;DHT22;37732;53.106;7.030;2022-08-30T14:10:44;25.80;73.80
51655;DHT22;37732;53.106;7.030;2022-08-30T14:13:10;25.70;75.10
51655;DHT22;37732;53.106;7.030;2022-08-30T14:15:37;25.70;74.70
51655;DHT22;37732;53.106;7.030;2022-08-30T14:18:04;25.80;74.80
51655;DHT22;37732;53.106;7.030;2022-08-30T14:20:30;25.60;74.70
51655;DHT22;37732;53.106;7.030;2022-08-30T14:22:56;25.70;74.60
51655;DHT22;37732;53.106;7.030;2022-08-30T14:25:22;25.70;74.40
51655;DHT22;37732;53.106;7.030;2022-08-30T14:27:48;25.60;75.50
51655;DHT22;37732;53.106;7.030;2022-08-30T14:30:14;25.90;75.80
51655;DHT22;37732;53.106;7.030;2022-08-30T14:32:40;26.10;75.90
51655;DHT22;37732;53.106;7.030;2022-08-30T14:35:06;26.20;74.60
51655;DHT22;37732;53.106;7.030;2022-08-30T14:37:32;26.00;73.30
51655;DHT22;37732;53.106;7.030;2022-08-30T14:39:57;25.70;72.50
51655;DHT22;37732;53.106;7.030;2022-08-30T14:42:23;25.60;73.80
51655;DHT22;37732;53.106;7.030;2022-08-30T14:44:49;25.60;75.20
51655;DHT22;37732;53.106;7.030;2022-08-30T14:47:15;25.70;75.20
51655;DHT22;37732;53.106;7.030;2022-08-30T14:49:41;25.70;74.50
51655;DHT22;37732;53.106;7.030;2022-08-30T14:52:06;25.60;74.30
51655;DHT22;37732;53.106;7.030;2022-08-30T14:54:32;25.60;73.50
51655;DHT22;37732;53.106;7.030;2022-08-30T14:56:59;25.50;74.10
51655;DHT22;37732;53.106;7.030;2022-08-30T14:59:25;25.40;74.30
51655;DHT22;37732;53.106;7.030;2022-08-30T15:01:51;25.40;74.70
51655;DHT22;37732;53.106;7.030;2022-08-30T15:04:16;25.40;75.00
51655;DHT22;37732;53.106;7.030;2022-08-30T15:06:45;25.50;75.50
51655;DHT22;37732;53.106;7.030;2022-08-30T15:09:13;25.60;75.30
51655;DHT22;37732;53.106;7.030;2022-08-30T15:11:39;25.70;75.20
51655;DHT22;37732;53.106;7.030;2022-08-30T15:14:08;25.80;75.00
51655;DHT22;37732;53.106;7.030;2022-08-30T15:16:36;25.80;75.20
51655;DHT22;37732;53.106;7.030;2022-08-30T15:19:04;25.80;73.70
51655;DHT22;37732;53.106;7.030;2022-08-30T15:21:38;25.70;74.00
51655;DHT22;37732;53.106;7.030;2022-08-30T15:24:05;25.60;73.80
51655;DHT22;37732;53.106;7.030;2022-08-30T15:26:31;25.30;73.10
51655;DHT22;37732;53.106;7.030;2022-08-30T15:28:56;25.10;73.40
51655;DHT22;37732;53.106;7.030;2022-08-30T15:31:24;25.10;74.50
51655;DHT22;37732;53.106;7.030;2022-08-30T15:33:53;25.30;75.50
51655;DHT22;37732;53.106;7.030;2022-08-30T15:36:20;25.20;74.90
51655;DHT22;37732;53.106;7.030;2022-08-30T15:38:57;25.10;75.50
51655;DHT22;37732;53.106;7.030;2022-08-30T15:41:25;24.80;75.50
51655;DHT22;37732;53.106;7.030;2022-08-30T15:43:51;24.70;75.70
51655;DHT22;37732;53.106;7.030;2022-08-30T15:46:32;24.70;76.50
51655;DHT22;37732;53.106;7.030;2022-08-30T15:51:36;24.70;77.90
51655;DHT22;37732;53.106;7.030;2022-08-30T15:54:03;24.50;78.80
51655;DHT22;37732;53.106;7.030;2022-08-30T15:56:30;24.30;79.40
51655;DHT22;37732;53.106;7.030;2022-08-30T15:58:57;24.10;80.30
51655;DHT22;37732;53.106;7.030;2022-08-30T16:01:22;23.80;81.60
51655;DHT22;37732;53.106;7.030;2022-08-30T16:03:48;23.60;82.80
51655;DHT22;37732;53.106;7.030;2022-08-30T16:06:17;23.40;83.80
51655;DHT22;37732;53.106;7.030;2022-08-30T16:08:43;23.20;84.80
51655;DHT22;37732;53.106;7.030;2022-08-30T16:11:10;23.00;86.00
51655;DHT22;37732;53.106;7.030;2022-08-30T16:13:36;22.80;86.90
51655;DHT22;37732;53.106;7.030;2022-08-30T16:16:04;22.70;87.70
51655;DHT22;37732;53.106;7.030;2022-08-30T16:18:30;22.60;88.50
51655;DHT22;37732;53.106;7.030;2022-08-30T16:21:15;22.50;89.60
51655;DHT22;37732;53.106;7.030;2022-08-30T16:23:43;22.50;90.20
51655;DHT22;37732;53.106;7.030;2022-08-30T16:26:10;22.30;90.80
51655;DHT22;37732;53.106;7.030;2022-08-30T16:28:37;22.30;90.60
51655;DHT22;37732;53.106;7.030;2022-08-30T16:31:04;22.30;90.50
51655;DHT22;37732;53.106;7.030;2022-08-30T16:33:31;22.20;90.40
51655;DHT22;37732;53.106;7.030;2022-08-30T16:35:57;22.20;90.30
51655;DHT22;37732;53.106;7.030;2022-08-30T16:38:24;22.10;90.30
51655;DHT22;37732;53.106;7.030;2022-08-30T16:40:50;22.00;90.60
51655;DHT22;37732;53.106;7.030;2022-08-30T16:43:16;21.90;91.00
51655;DHT22;37732;53.106;7.030;2022-08-30T16:45:43;21.90;91.50
51655;DHT22;37732;53.106;7.030;2022-08-30T16:48:09;21.80;91.80
51655;DHT22;37732;53.106;7.030;2022-08-30T16:50:37;21.70;91.90
51655;DHT22;37732;53.106;7.030;2022-08-30T16:53:03;21.60;92.30
51655;DHT22;37732;53.106;7.030;2022-08-30T16:55:29;21.60;92.40
51655;DHT22;37732;53.106;7.030;2022-08-30T16:57:56;21.50;92.60
51655;DHT22;37732;53.106;7.030;2022-08-30T17:00:22;21.40;92.60
51655;DHT22;37732;53.106;7.030;2022-08-30T17:02:52;21.40;92.80
51655;DHT22;37732;53.106;7.030;2022-08-30T17:05:19;21.30;93.20
51655;DHT22;37732;53.106;7.030;2022-08-30T17:07:45;21.20;93.50
51655;DHT22;37732;53.106;7.030;2022-08-30T17:10:11;21.20;94.00
51655;DHT22;37732;53.106;7.030;2022-08-30T17:12:37;21.10;94.00
51655;DHT22;37732;53.106;7.030;2022-08-30T17:15:03;21.10;94.10
51655;DHT22;37732;53.106;7.030;2022-08-30T17:17:30;21.00;94.10
51655;DHT22;37732;53.106;7.030;2022-08-30T17:19:55;20.90;94.50